createdAt,value
2023-05-20T00:00:31.842Z,97.63
2023-05-20T00:01:31.992Z,97.73
2023-05-20T00:02:31.867Z,97.73
2023-05-20T00:03:31.798Z,97.73
2023-05-20T00:04:31.756Z,97.73
2023-05-20T00:05:31.721Z,97.42
2023-05-20T00:06:31.767Z,97.42
2023-05-20T00:07:31.807Z,97.42
2023-05-20T00:08:31.766Z,97.32
2023-05-20T00:09:31.650Z,97.02
2023-05-20T00:10:31.745Z,97.12
2023-05-20T00:11:31.885Z,97.12
2023-05-20T00:12:31.821Z,97.12
2023-05-20T00:13:31.605Z,97.16
2023-05-20T00:14:31.575Z,97.27
2023-05-20T00:15:31.726Z,97.37
2023-05-20T00:16:31.650Z,97.47
2023-05-20T00:17:31.716Z,97.57
2023-05-20T00:18:31.624Z,97.78
2023-05-20T00:19:31.605Z,97.88
2023-05-20T00:20:31.815Z,98.18
2023-05-20T00:21:31.588Z,98.39
2023-05-20T00:22:31.485Z,98.49
2023-05-20T00:23:31.665Z,98.74
2023-05-20T00:24:31.558Z,98.74
2023-05-20T00:25:31.879Z,98.54
2023-05-20T00:26:31.430Z,98.33
2023-05-20T00:27:31.400Z,98.23
2023-05-20T00:28:31.416Z,97.92
2023-05-20T00:29:31.452Z,97.62
2023-05-20T00:30:31.356Z,97.62
2023-05-20T00:31:31.393Z,97.41
2023-05-20T00:32:31.387Z,97.62
2023-05-20T00:33:31.305Z,97.41
2023-05-20T00:34:31.368Z,97.52
2023-05-20T00:35:31.340Z,97.11
2023-05-20T00:36:31.313Z,96.91
2023-05-20T00:37:31.287Z,97.21
2023-05-20T00:38:32.049Z,97.21
2023-05-20T00:39:31.352Z,97.00
2023-05-20T00:40:31.431Z,97.21
2023-05-20T00:41:31.243Z,97.00
2023-05-20T00:42:31.207Z,97.31
2023-05-20T00:43:31.259Z,97.21
2023-05-20T00:44:31.532Z,97.11
2023-05-20T00:45:31.328Z,97.00
2023-05-20T00:46:31.202Z,97.00
2023-05-20T00:47:31.379Z,96.50
2023-05-20T00:48:31.104Z,96.39
2023-05-20T00:49:31.224Z,96.04
2023-05-20T00:50:31.099Z,95.94
2023-05-20T00:51:31.074Z,95.53
2023-05-20T00:52:31.097Z,95.33
2023-05-20T00:53:31.085Z,95.33
2023-05-20T00:54:31.057Z,95.33
2023-05-20T00:55:31.403Z,95.53
2023-05-20T00:56:31.093Z,95.43
2023-05-20T00:57:31.252Z,95.13
2023-05-20T00:58:31.120Z,94.82
2023-05-20T00:59:30.993Z,94.62
2023-05-20T01:00:31.209Z,94.72
2023-05-20T01:01:30.979Z,94.62
2023-05-20T01:02:31.013Z,94.37
2023-05-20T01:03:31.444Z,94.31
2023-05-20T01:04:30.928Z,94.21
2023-05-20T01:05:31.034Z,94.01
2023-05-20T01:06:30.984Z,93.80
2023-05-20T01:07:30.847Z,93.66
2023-05-20T01:08:30.854Z,93.05
2023-05-20T01:09:30.933Z,92.94
2023-05-20T01:10:31.207Z,93.25
2023-05-20T01:11:31.008Z,93.05
2023-05-20T01:12:30.846Z,93.45
2023-05-20T01:13:30.794Z,93.25
2023-05-20T01:14:30.762Z,93.55
2023-05-20T01:15:30.803Z,93.45
2023-05-20T01:16:30.946Z,93.76
2023-05-20T01:17:30.811Z,93.86
2023-05-20T01:18:30.788Z,94.21
2023-05-20T01:19:30.688Z,94.27
2023-05-20T01:20:30.830Z,94.31
2023-05-20T01:21:31.019Z,94.42
2023-05-20T01:22:30.899Z,94.42
2023-05-20T01:23:30.753Z,94.72
2023-05-20T01:24:30.821Z,94.72
2023-05-20T01:25:30.994Z,94.72
2023-05-20T01:26:30.872Z,94.21
2023-05-20T01:27:30.624Z,94.31
2023-05-20T01:28:30.768Z,94.62
2023-05-20T01:29:30.632Z,94.62
2023-05-20T01:30:30.578Z,94.82
2023-05-20T01:31:30.762Z,94.72
2023-05-20T01:32:30.813Z,94.82
2023-05-20T01:33:30.633Z,95.13
2023-05-20T01:34:30.867Z,95.33
2023-05-20T01:35:30.710Z,95.43
2023-05-20T01:36:30.608Z,95.33
2023-05-20T01:37:30.638Z,95.64
2023-05-20T01:38:30.452Z,95.53
2023-05-20T01:39:30.705Z,95.64
2023-05-20T01:40:30.472Z,95.74
2023-05-20T01:41:30.704Z,95.84
2023-05-20T01:42:30.463Z,96.19
2023-05-20T01:43:30.620Z,96.50
2023-05-20T01:44:30.444Z,96.91
2023-05-20T01:45:30.364Z,97.21
2023-05-20T01:46:30.472Z,97.52
2023-05-20T01:47:30.434Z,97.82
2023-05-20T01:48:30.557Z,98.13
2023-05-20T01:49:30.326Z,98.38
2023-05-20T01:50:30.296Z,98.74
2023-05-20T01:51:30.392Z,98.99
2023-05-20T01:52:30.270Z,99.19
2023-05-20T01:53:30.398Z,99.19
2023-05-20T01:54:30.271Z,99.09
2023-05-20T01:55:30.308Z,99.19
2023-05-20T01:56:30.209Z,99.29
2023-05-20T01:57:30.327Z,99.40
2023-05-20T01:58:30.554Z,99.70
2023-05-20T01:59:30.208Z,98.79
2023-05-20T02:00:30.288Z,98.58
2023-05-20T02:01:30.482Z,98.68
2023-05-20T02:02:30.312Z,98.68
2023-05-20T02:03:30.332Z,98.79
2023-05-20T02:04:30.276Z,98.79
2023-05-20T02:05:30.353Z,98.79
2023-05-20T02:06:30.143Z,98.68
2023-05-20T02:07:30.055Z,98.68
2023-05-20T02:08:30.148Z,98.68
2023-05-20T02:09:30.421Z,98.79
2023-05-20T02:10:30.182Z,98.79
2023-05-20T02:11:30.001Z,98.48
2023-05-20T02:12:30.184Z,98.38
2023-05-20T02:13:29.971Z,98.23
2023-05-20T02:14:29.965Z,98.33
2023-05-20T02:15:30.124Z,98.54
2023-05-20T02:16:30.023Z,98.54
2023-05-20T02:17:30.040Z,98.43
2023-05-20T02:18:29.929Z,98.33
2023-05-20T02:19:30.260Z,98.43
2023-05-20T02:20:30.167Z,98.33
2023-05-20T02:21:30.062Z,98.02
2023-05-20T02:22:29.877Z,98.23
2023-05-20T02:23:30.081Z,98.33
2023-05-20T02:24:29.852Z,98.33
2023-05-20T02:25:30.084Z,98.23
2023-05-20T02:26:29.909Z,98.13
2023-05-20T02:27:29.845Z,98.23
2023-05-20T02:28:29.921Z,98.23
2023-05-20T02:29:29.995Z,98.23
2023-05-20T02:30:29.848Z,98.33
2023-05-20T02:31:29.943Z,98.43
2023-05-20T02:32:29.811Z,98.54
2023-05-20T02:33:29.825Z,98.64
2023-05-20T02:34:29.866Z,98.79
2023-05-20T02:35:29.969Z,98.99
2023-05-20T02:36:29.748Z,99.19
2023-05-20T02:37:29.751Z,99.40
2023-05-20T02:38:29.886Z,99.70
2023-05-20T02:39:29.655Z,99.99
2023-05-20T02:40:29.818Z,99.99
2023-05-20T02:41:29.673Z,99.99
2023-05-20T02:42:29.921Z,99.99
2023-05-20T02:43:29.673Z,99.99
2023-05-20T02:44:29.826Z,99.99
2023-05-20T02:45:29.631Z,99.99
2023-05-20T02:46:29.879Z,99.99
2023-05-20T02:47:29.586Z,99.99
2023-05-20T02:48:29.954Z,99.99
2023-05-20T02:49:29.524Z,99.99
2023-05-20T02:50:29.501Z,99.99
2023-05-20T02:51:29.665Z,99.99
2023-05-20T02:52:29.535Z,99.99
2023-05-20T02:53:29.562Z,99.99
2023-05-20T02:54:29.553Z,99.99
2023-05-20T02:55:29.731Z,99.99
2023-05-20T02:56:29.566Z,99.99
2023-05-20T02:57:29.456Z,99.99
2023-05-20T02:58:29.587Z,99.99
2023-05-20T02:59:29.484Z,99.99
2023-05-20T03:00:29.473Z,99.99
2023-05-20T03:01:29.364Z,99.99
2023-05-20T03:02:29.528Z,99.99
2023-05-20T03:03:29.337Z,99.99
2023-05-20T03:04:29.651Z,99.99
2023-05-20T03:05:29.332Z,99.99
2023-05-20T03:06:29.575Z,99.99
2023-05-20T03:07:29.436Z,99.99
2023-05-20T03:08:29.278Z,99.99
2023-05-20T03:09:29.432Z,99.99
2023-05-20T03:10:29.602Z,99.99
2023-05-20T03:11:29.432Z,99.99
2023-05-20T03:12:29.169Z,99.99
2023-05-20T03:13:29.368Z,99.99
2023-05-20T03:14:29.270Z,99.99
2023-05-20T03:15:29.212Z,99.99
2023-05-20T03:16:29.401Z,99.99
2023-05-20T03:17:29.434Z,99.99
2023-05-20T03:18:29.329Z,99.99
2023-05-20T03:19:29.413Z,99.99
2023-05-20T03:20:29.344Z,99.99
2023-05-20T03:21:29.057Z,99.99
2023-05-20T03:22:29.168Z,99.99
2023-05-20T03:23:29.068Z,99.99
2023-05-20T03:24:29.177Z,99.99
2023-05-20T03:25:29.033Z,99.99
2023-05-20T03:26:29.309Z,99.99
2023-05-20T03:27:29.046Z,99.99
2023-05-20T03:28:29.057Z,99.99
2023-05-20T03:29:29.053Z,99.99
2023-05-20T03:30:28.965Z,99.99
2023-05-20T03:31:29.190Z,99.99
2023-05-20T03:32:29.229Z,99.99
2023-05-20T03:33:28.980Z,99.99
2023-05-20T03:34:28.957Z,99.99
2023-05-20T03:35:29.013Z,99.99
2023-05-20T03:36:28.896Z,99.99
2023-05-20T03:37:29.160Z,99.99
2023-05-20T03:38:28.924Z,99.99
2023-05-20T03:39:28.833Z,99.99
2023-05-20T03:40:28.853Z,99.99
2023-05-20T03:41:29.050Z,99.99
2023-05-20T03:42:28.846Z,99.99
2023-05-20T03:43:29.106Z,99.99
2023-05-20T03:44:28.955Z,99.99
2023-05-20T03:45:28.774Z,99.99
2023-05-20T03:46:28.904Z,99.99
2023-05-20T03:47:28.839Z,99.99
2023-05-20T03:48:28.784Z,99.99
2023-05-20T03:49:28.688Z,99.99
2023-05-20T03:50:28.723Z,99.99
2023-05-20T03:51:28.809Z,99.99
2023-05-20T03:52:28.637Z,99.99
2023-05-20T03:53:28.903Z,99.99
2023-05-20T03:54:28.897Z,99.99
2023-05-20T03:55:28.686Z,99.99
2023-05-20T03:56:28.617Z,99.99
2023-05-20T03:57:28.675Z,99.99
2023-05-20T03:58:28.699Z,99.99
2023-05-20T03:59:28.683Z,99.99
2023-05-20T04:00:28.535Z,99.99
2023-05-20T04:01:28.801Z,99.99
2023-05-20T04:02:28.665Z,99.99
2023-05-20T04:03:28.595Z,99.99
2023-05-20T04:04:28.553Z,99.99
2023-05-20T04:05:28.497Z,99.99
2023-05-20T04:06:28.643Z,99.99
2023-05-20T04:07:28.480Z,99.99
2023-05-20T04:08:28.631Z,99.99
2023-05-20T04:09:28.469Z,99.99
2023-05-20T04:10:28.674Z,99.99
2023-05-20T04:11:28.383Z,99.99
2023-05-20T04:12:28.362Z,99.99
2023-05-20T04:13:28.501Z,99.99
2023-05-20T04:14:28.359Z,99.99
2023-05-20T04:15:28.363Z,99.99
2023-05-20T04:16:28.562Z,99.99
2023-05-20T04:17:28.444Z,99.99
2023-05-20T04:18:28.625Z,99.99
2023-05-20T04:19:28.667Z,99.99
2023-05-20T04:20:28.302Z,99.99
2023-05-20T04:21:28.244Z,99.99
2023-05-20T04:22:28.307Z,99.99
2023-05-20T04:23:28.480Z,99.99
2023-05-20T04:24:28.249Z,99.99
2023-05-20T04:25:28.441Z,99.99
2023-05-20T04:26:28.389Z,99.99
2023-05-20T04:27:28.218Z,99.99
2023-05-20T04:28:28.405Z,99.99
2023-05-20T04:29:28.111Z,99.99
2023-05-20T04:30:28.149Z,99.99
2023-05-20T04:31:28.211Z,99.99
2023-05-20T04:32:28.383Z,99.99
2023-05-20T04:33:28.342Z,99.99
2023-05-20T04:34:28.091Z,99.99
2023-05-20T04:35:28.221Z,99.99
2023-05-20T04:36:28.093Z,99.99
2023-05-20T04:37:28.080Z,99.99
2023-05-20T04:38:29.498Z,99.99
2023-05-20T04:39:28.114Z,99.99
2023-05-20T04:40:27.980Z,99.99
2023-05-20T04:41:28.065Z,99.99
2023-05-20T04:42:27.984Z,99.99
2023-05-20T04:43:28.081Z,99.99
2023-05-20T04:44:27.969Z,99.99
2023-05-20T04:45:27.906Z,99.99
2023-05-20T04:46:28.026Z,99.99
2023-05-20T04:47:27.926Z,99.61
2023-05-20T04:48:27.967Z,99.36
2023-05-20T04:49:27.860Z,99.16
2023-05-20T04:50:27.846Z,98.90
2023-05-20T04:51:27.835Z,99.10
2023-05-20T04:52:27.811Z,99.41
2023-05-20T04:53:27.802Z,99.20
2023-05-20T04:54:27.890Z,98.85
2023-05-20T04:55:27.792Z,98.75
2023-05-20T04:56:27.802Z,98.03
2023-05-20T04:57:27.763Z,97.93
2023-05-20T04:58:27.751Z,98.14
2023-05-20T04:59:27.742Z,98.03
2023-05-20T05:00:27.818Z,97.78
2023-05-20T05:01:27.751Z,97.12
2023-05-20T05:02:27.715Z,96.92
2023-05-20T05:03:28.204Z,97.07
2023-05-20T05:04:27.739Z,96.83
2023-05-20T05:05:27.785Z,95.82
2023-05-20T05:06:27.604Z,93.84
2023-05-20T05:07:27.625Z,91.08
2023-05-20T05:08:27.618Z,89.01
2023-05-20T05:09:27.607Z,87.71
2023-05-20T05:10:27.568Z,87.20
2023-05-20T05:11:27.644Z,85.70
2023-05-20T05:12:27.586Z,84.75
2023-05-20T05:13:27.567Z,84.14
2023-05-20T05:14:27.672Z,84.00
2023-05-20T05:15:28.610Z,83.36
2023-05-20T05:16:27.675Z,81.10
2023-05-20T05:17:27.488Z,81.34
2023-05-20T05:18:27.599Z,81.26
2023-05-20T05:19:27.483Z,79.57
2023-05-20T05:20:27.451Z,78.39
2023-05-20T05:21:27.433Z,76.57
2023-05-20T05:22:27.513Z,77.62
2023-05-20T05:23:27.425Z,76.34
2023-05-20T05:24:27.387Z,76.27
2023-05-20T05:25:27.425Z,76.67
2023-05-20T05:26:27.406Z,76.07
2023-05-20T05:27:27.439Z,76.81
2023-05-20T05:28:27.325Z,77.82
2023-05-20T05:29:27.299Z,77.92
2023-05-20T05:30:27.339Z,77.21
2023-05-20T05:31:27.331Z,77.45
2023-05-20T05:32:27.675Z,78.50
2023-05-20T05:33:27.370Z,78.84
2023-05-20T05:34:27.378Z,79.24
2023-05-20T05:35:27.333Z,79.14
2023-05-20T05:36:27.302Z,78.59
2023-05-20T05:37:27.314Z,78.76
2023-05-20T05:38:27.250Z,78.76
2023-05-20T05:39:27.181Z,78.59
2023-05-20T05:40:27.191Z,78.76
2023-05-20T05:41:27.167Z,77.42
2023-05-20T05:42:27.170Z,77.95
2023-05-20T05:43:27.310Z,79.04
2023-05-20T05:44:27.123Z,80.29
2023-05-20T05:45:27.209Z,80.49
2023-05-20T05:46:27.173Z,80.93
2023-05-20T05:47:27.126Z,81.23
2023-05-20T05:48:27.382Z,81.78
2023-05-20T05:49:27.073Z,82.42
2023-05-20T05:50:27.114Z,82.93
2023-05-20T05:51:27.057Z,82.93
2023-05-20T05:52:27.057Z,83.03
2023-05-20T05:53:27.128Z,83.72
2023-05-20T05:54:26.993Z,84.67
2023-05-20T05:55:27.115Z,86.22
2023-05-20T05:56:26.990Z,85.99
2023-05-20T05:57:27.085Z,85.33
2023-05-20T05:58:27.057Z,84.83
2023-05-20T05:59:26.913Z,84.83
2023-05-20T06:00:26.921Z,83.78
2023-05-20T06:01:27.079Z,84.59
2023-05-20T06:02:27.040Z,84.59
2023-05-20T06:03:27.102Z,84.33
2023-05-20T06:04:26.956Z,84.89
2023-05-20T06:05:29.132Z,83.88
2023-05-20T06:06:27.058Z,85.24
2023-05-20T06:07:26.796Z,85.03
2023-05-20T06:08:26.883Z,85.33
2023-05-20T06:09:26.775Z,84.93
2023-05-20T06:10:27.063Z,84.93
2023-05-20T06:11:26.775Z,85.30
2023-05-20T06:12:27.011Z,84.69
2023-05-20T06:13:26.847Z,84.63
2023-05-20T06:14:26.708Z,84.83
2023-05-20T06:15:26.767Z,84.73
2023-05-20T06:16:26.705Z,85.24
2023-05-20T06:17:26.905Z,84.73
2023-05-20T06:18:26.749Z,85.50
2023-05-20T06:19:26.828Z,84.69
2023-05-20T06:20:26.708Z,84.39
2023-05-20T06:21:26.789Z,84.19
2023-05-20T06:22:26.593Z,84.08
2023-05-20T06:23:26.580Z,83.84
2023-05-20T06:24:26.629Z,84.14
2023-05-20T06:25:26.552Z,83.23
2023-05-20T06:26:26.609Z,82.99
2023-05-20T06:27:26.767Z,82.14
2023-05-20T06:28:26.515Z,81.94
2023-05-20T06:29:26.551Z,81.68
2023-05-20T06:30:26.743Z,82.69
2023-05-20T06:31:26.640Z,82.45
2023-05-20T06:32:26.527Z,81.34
2023-05-20T06:33:26.474Z,81.74
2023-05-20T06:34:26.463Z,82.18
2023-05-20T06:35:26.591Z,82.45
2023-05-20T06:36:26.429Z,81.74
2023-05-20T06:37:26.470Z,82.35
2023-05-20T06:38:26.383Z,81.54
2023-05-20T06:39:26.385Z,80.85
2023-05-20T06:40:26.533Z,80.59
2023-05-20T06:41:26.560Z,80.99
2023-05-20T06:42:26.597Z,80.96
2023-05-20T06:43:26.487Z,80.96
2023-05-20T06:44:26.406Z,80.65
2023-05-20T06:45:26.312Z,81.67
2023-05-20T06:46:26.418Z,80.59
2023-05-20T06:47:26.320Z,82.04
2023-05-20T06:48:26.309Z,82.89
2023-05-20T06:49:26.287Z,83.68
2023-05-20T06:50:26.261Z,84.59
2023-05-20T06:51:26.397Z,85.64
2023-05-20T06:52:26.387Z,85.50
2023-05-20T06:53:26.480Z,85.10
2023-05-20T06:54:26.310Z,85.24
2023-05-20T06:55:26.208Z,85.99
2023-05-20T06:56:26.249Z,87.00
2023-05-20T06:57:26.127Z,86.39
2023-05-20T06:58:26.157Z,86.35
2023-05-20T06:59:26.180Z,86.10
2023-05-20T07:00:26.192Z,85.44
2023-05-20T07:01:26.157Z,85.80
2023-05-20T07:02:26.465Z,84.81
2023-05-20T07:03:26.193Z,83.90
2023-05-20T07:04:26.306Z,83.96
2023-05-20T07:05:26.238Z,83.05
2023-05-20T07:06:26.087Z,82.95
2023-05-20T07:07:26.145Z,82.81
2023-05-20T07:08:26.020Z,81.67
2023-05-20T07:09:26.202Z,80.92
2023-05-20T07:10:26.051Z,80.31
2023-05-20T07:11:25.950Z,79.97
2023-05-20T07:12:26.086Z,80.07
2023-05-20T07:13:26.306Z,79.43
2023-05-20T07:14:25.996Z,78.92
2023-05-20T07:15:25.921Z,78.42
2023-05-20T07:16:26.050Z,78.63
2023-05-20T07:17:25.938Z,79.57
2023-05-20T07:18:26.086Z,79.39
2023-05-20T07:19:25.937Z,79.03
2023-05-20T07:20:25.766Z,78.49
2023-05-20T07:21:25.836Z,77.95
2023-05-20T07:22:25.794Z,76.87
2023-05-20T07:23:25.922Z,76.16
2023-05-20T07:24:25.989Z,76.12
2023-05-20T07:25:25.884Z,75.42
2023-05-20T07:26:26.008Z,75.76
2023-05-20T07:27:25.936Z,76.87
2023-05-20T07:28:25.801Z,76.74
2023-05-20T07:29:25.833Z,78.28
2023-05-20T07:30:25.674Z,77.31
2023-05-20T07:31:25.855Z,76.46
2023-05-20T07:32:25.776Z,74.78
2023-05-20T07:33:25.823Z,74.68
2023-05-20T07:34:25.654Z,74.82
2023-05-20T07:35:25.638Z,76.10
2023-05-20T07:36:25.587Z,78.28
2023-05-20T07:37:25.731Z,78.08
2023-05-20T07:38:25.565Z,78.72
2023-05-20T07:39:25.911Z,79.23
2023-05-20T07:40:25.570Z,78.55
2023-05-20T07:41:25.831Z,77.61
2023-05-20T07:42:25.559Z,75.15
2023-05-20T07:43:25.510Z,73.03
2023-05-20T07:44:25.595Z,70.32
2023-05-20T07:45:25.514Z,68.96
2023-05-20T07:46:25.555Z,67.82
2023-05-20T07:47:25.516Z,67.46
2023-05-20T07:48:25.425Z,66.39
2023-05-20T07:49:25.652Z,65.11
2023-05-20T07:50:25.466Z,64.34
2023-05-20T07:51:25.409Z,65.31
2023-05-20T07:52:25.392Z,63.68
2023-05-20T07:53:25.512Z,66.27
2023-05-20T07:54:25.398Z,63.64
2023-05-20T07:55:25.429Z,63.51
2023-05-20T07:56:25.328Z,66.27
2023-05-20T07:57:25.310Z,65.67
2023-05-20T07:58:25.360Z,65.26
2023-05-20T07:59:25.508Z,65.80
2023-05-20T08:00:25.434Z,66.47
2023-05-20T08:01:25.634Z,64.81
2023-05-20T08:02:25.583Z,64.24
2023-05-20T08:03:25.355Z,65.20
2023-05-20T08:04:25.403Z,65.50
2023-05-20T08:05:25.264Z,66.33
2023-05-20T08:06:27.293Z,66.20
2023-05-20T08:07:25.218Z,66.06
2023-05-20T08:08:25.238Z,65.47
2023-05-20T08:09:25.280Z,64.57
2023-05-20T08:10:25.144Z,64.54
2023-05-20T08:11:25.180Z,65.31
2023-05-20T08:12:25.342Z,65.11
2023-05-20T08:13:25.230Z,65.44
2023-05-20T08:14:25.084Z,63.42
2023-05-20T08:15:25.169Z,63.95
2023-05-20T08:16:25.110Z,63.71
2023-05-20T08:17:25.200Z,64.94
2023-05-20T08:18:25.143Z,65.73
2023-05-20T08:19:25.111Z,64.84
2023-05-20T08:20:25.108Z,65.77
2023-05-20T08:21:25.197Z,66.03
2023-05-20T08:22:25.006Z,67.60
2023-05-20T08:23:25.262Z,66.06
2023-05-20T08:24:25.021Z,66.17
2023-05-20T08:25:25.249Z,66.36
2023-05-20T08:26:25.061Z,66.47
2023-05-20T08:27:24.920Z,65.70
2023-05-20T08:28:25.131Z,66.89
2023-05-20T08:29:25.199Z,67.03
2023-05-20T08:30:24.850Z,67.46
2023-05-20T08:31:25.031Z,66.23
2023-05-20T08:32:25.064Z,67.36
2023-05-20T08:33:24.983Z,68.09
2023-05-20T08:34:24.825Z,67.16
2023-05-20T08:35:25.005Z,66.83
2023-05-20T08:36:24.822Z,66.50
2023-05-20T08:37:24.851Z,66.70
2023-05-20T08:38:25.121Z,65.47
2023-05-20T08:39:24.959Z,66.06
2023-05-20T08:40:25.043Z,64.87
2023-05-20T08:41:24.858Z,66.06
2023-05-20T08:42:24.763Z,65.77
2023-05-20T08:43:24.972Z,66.03
2023-05-20T08:44:24.705Z,64.71
2023-05-20T08:45:24.860Z,65.08
2023-05-20T08:46:24.806Z,63.95
2023-05-20T08:47:24.890Z,64.58
2023-05-20T08:48:24.804Z,65.34
2023-05-20T08:49:24.874Z,63.42
2023-05-20T08:50:24.697Z,63.25
2023-05-20T08:51:24.889Z,62.75
2023-05-20T08:52:24.714Z,63.68
2023-05-20T08:53:24.652Z,65.11
2023-05-20T08:54:24.720Z,64.71
2023-05-20T08:55:24.544Z,64.45
2023-05-20T08:56:24.707Z,62.92
2023-05-20T08:57:24.544Z,62.72
2023-05-20T08:58:24.786Z,63.65
2023-05-20T08:59:24.649Z,64.31
2023-05-20T09:00:24.492Z,64.18
2023-05-20T09:01:24.560Z,64.15
2023-05-20T09:02:24.732Z,62.52
2023-05-20T09:03:24.633Z,64.22
2023-05-20T09:04:24.457Z,63.56
2023-05-20T09:05:24.555Z,62.96
2023-05-20T09:06:24.368Z,61.64
2023-05-20T09:07:24.388Z,62.90
2023-05-20T09:08:24.482Z,62.26
2023-05-20T09:09:24.328Z,62.86
2023-05-20T09:10:24.368Z,64.55
2023-05-20T09:11:24.352Z,64.32
2023-05-20T09:12:24.376Z,62.43
2023-05-20T09:13:24.652Z,63.56
2023-05-20T09:14:24.354Z,61.83
2023-05-20T09:15:24.522Z,62.07
2023-05-20T09:16:24.519Z,62.89
2023-05-20T09:17:24.628Z,63.49
2023-05-20T09:18:24.524Z,62.76
2023-05-20T09:19:24.785Z,62.63
2023-05-20T09:20:24.382Z,63.13
2023-05-20T09:21:24.274Z,62.23
2023-05-20T09:22:25.366Z,63.30
2023-05-20T09:23:24.319Z,62.70
2023-05-20T09:24:24.373Z,62.80
2023-05-20T09:25:24.220Z,60.55
2023-05-20T09:26:24.384Z,62.10
2023-05-20T09:27:24.313Z,62.99
2023-05-20T09:28:24.495Z,63.95
2023-05-20T09:29:24.308Z,64.12
2023-05-20T09:30:24.064Z,63.26
2023-05-20T09:31:24.252Z,60.98
2023-05-20T09:32:24.067Z,61.15
2023-05-20T09:33:24.197Z,60.03
2023-05-20T09:34:24.158Z,61.02
2023-05-20T09:35:24.011Z,60.39
2023-05-20T09:36:24.065Z,62.83
2023-05-20T09:37:24.220Z,63.03
2023-05-20T09:38:23.945Z,63.85
2023-05-20T09:39:24.059Z,63.06
2023-05-20T09:40:24.058Z,64.31
2023-05-20T09:41:23.931Z,64.15
2023-05-20T09:42:24.066Z,66.13
2023-05-20T09:43:23.911Z,66.73
2023-05-20T09:44:24.159Z,65.83
2023-05-20T09:45:23.903Z,66.86
2023-05-20T09:46:24.086Z,66.13
2023-05-20T09:47:23.806Z,66.83
2023-05-20T09:48:23.824Z,65.70
2023-05-20T09:49:23.889Z,66.20
2023-05-20T09:50:23.787Z,66.13
2023-05-20T09:51:23.764Z,65.67
2023-05-20T09:52:23.787Z,65.17
2023-05-20T09:53:23.763Z,64.18
2023-05-20T09:54:23.820Z,64.78
2023-05-20T09:55:23.840Z,65.47
2023-05-20T09:56:23.712Z,65.14
2023-05-20T09:57:23.728Z,65.34
2023-05-20T09:58:23.696Z,64.75
2023-05-20T09:59:23.759Z,65.34
2023-05-20T10:00:23.645Z,65.34
2023-05-20T10:01:23.699Z,64.42
2023-05-20T10:02:23.688Z,64.39
2023-05-20T10:03:23.666Z,63.82
2023-05-20T10:04:23.703Z,64.64
2023-05-20T10:05:23.630Z,66.24
2023-05-20T10:06:23.673Z,65.34
2023-05-20T10:07:37.967Z,64.94
2023-05-20T10:08:23.553Z,66.17
2023-05-20T10:09:23.532Z,67.46
2023-05-20T10:10:23.491Z,67.30
2023-05-20T10:11:23.665Z,67.69
2023-05-20T10:12:23.498Z,67.36
2023-05-20T10:13:23.595Z,67.36
2023-05-20T10:14:23.472Z,68.19
2023-05-20T10:15:23.504Z,69.49
2023-05-20T10:16:23.536Z,68.49
2023-05-20T10:17:23.851Z,69.16
2023-05-20T10:18:23.432Z,68.33
2023-05-20T10:19:23.601Z,68.89
2023-05-20T10:20:23.512Z,70.49
2023-05-20T10:21:23.575Z,70.16
2023-05-20T10:22:23.544Z,68.79
2023-05-20T10:23:23.591Z,68.96
2023-05-20T10:24:23.411Z,69.93
2023-05-20T10:25:23.588Z,69.66
2023-05-20T10:26:23.414Z,70.06
2023-05-20T10:27:23.405Z,70.36
2023-05-20T10:28:23.425Z,69.36
2023-05-20T10:29:23.274Z,70.16
2023-05-20T10:30:23.422Z,70.56
2023-05-20T10:31:23.276Z,70.29
2023-05-20T10:32:23.558Z,68.63
2023-05-20T10:33:23.406Z,67.27
2023-05-20T10:34:23.224Z,66.57
2023-05-20T10:35:23.270Z,66.27
2023-05-20T10:36:23.238Z,67.23
2023-05-20T10:37:23.363Z,66.50
2023-05-20T10:38:23.188Z,66.17
2023-05-20T10:39:23.330Z,65.54
2023-05-20T10:40:23.140Z,65.77
2023-05-20T10:41:23.265Z,65.67
2023-05-20T10:42:23.166Z,65.34
2023-05-20T10:43:24.084Z,65.67
2023-05-20T10:44:23.212Z,65.47
2023-05-20T10:45:23.065Z,66.00
2023-05-20T10:46:33.978Z,67.03
2023-05-20T10:47:25.986Z,67.76
2023-05-20T10:48:23.121Z,68.59
2023-05-20T10:49:27.264Z,69.02
2023-05-20T10:50:22.997Z,70.36
2023-05-20T10:51:22.968Z,70.03
2023-05-20T10:52:23.100Z,70.59
2023-05-20T10:53:32.801Z,72.13
2023-05-20T10:54:23.011Z,71.26
2023-05-20T10:55:22.961Z,71.23
2023-05-20T10:56:23.112Z,71.39
2023-05-20T10:57:22.936Z,71.29
2023-05-20T10:58:23.037Z,70.03
2023-05-20T10:59:23.007Z,70.12
2023-05-20T11:00:22.879Z,70.92
2023-05-20T11:01:22.913Z,71.09
2023-05-20T11:02:22.859Z,70.89
2023-05-20T11:03:23.331Z,70.89
2023-05-20T11:04:22.774Z,71.49
2023-05-20T11:05:22.799Z,71.42
2023-05-20T11:06:22.837Z,71.23
2023-05-20T11:07:22.962Z,72.42
2023-05-20T11:08:29.068Z,72.23
2023-05-20T11:09:22.979Z,71.73
2023-05-20T11:10:22.806Z,71.49
2023-05-20T11:11:22.722Z,71.99
2023-05-20T11:12:22.776Z,70.96
2023-05-20T11:13:22.806Z,70.19
2023-05-20T11:14:22.804Z,71.62
2023-05-20T11:15:22.950Z,72.63
2023-05-20T11:16:22.846Z,71.99
2023-05-20T11:17:22.722Z,71.86
2023-05-20T11:18:22.829Z,71.26
2023-05-20T11:19:22.880Z,70.86
2023-05-20T11:20:22.569Z,70.66
2023-05-20T11:21:22.619Z,70.29
2023-05-20T11:22:22.536Z,70.59
2023-05-20T11:23:22.619Z,70.99
2023-05-20T11:24:22.672Z,70.59
2023-05-20T11:25:22.615Z,70.69
2023-05-20T11:26:22.533Z,71.09
2023-05-20T11:27:22.469Z,70.79
2023-05-20T11:28:22.465Z,71.59
2023-05-20T11:29:22.745Z,70.59
2023-05-20T11:30:22.473Z,71.06
2023-05-20T11:31:22.512Z,70.56
2023-05-20T11:32:22.486Z,70.06
2023-05-20T11:33:22.514Z,71.12
2023-05-20T11:34:25.041Z,70.03
2023-05-20T11:35:22.494Z,70.46
2023-05-20T11:36:28.069Z,71.09
2023-05-20T11:37:22.405Z,71.59
2023-05-20T11:38:22.510Z,70.46
2023-05-20T11:39:22.352Z,70.06
2023-05-20T11:40:22.408Z,70.29
2023-05-20T11:41:22.308Z,70.86
2023-05-20T11:42:22.305Z,69.79
2023-05-20T11:43:22.284Z,69.46
2023-05-20T11:44:22.274Z,70.89
2023-05-20T11:45:22.400Z,70.95
2023-05-20T11:46:22.307Z,69.36
2023-05-20T11:47:22.739Z,70.76
2023-05-20T11:48:22.204Z,70.89
2023-05-20T11:49:22.170Z,70.53
2023-05-20T11:50:22.177Z,71.62
2023-05-20T11:51:22.252Z,72.06
2023-05-20T11:52:22.176Z,72.86
2023-05-20T11:53:22.391Z,72.26
2023-05-20T11:54:22.133Z,73.06
2023-05-20T11:55:22.312Z,73.86
2023-05-20T11:56:22.239Z,72.16
2023-05-20T11:57:22.336Z,72.56
2023-05-20T11:58:22.060Z,73.06
2023-05-20T11:59:22.319Z,73.25
2023-05-20T12:00:22.078Z,73.16
2023-05-20T12:01:23.367Z,72.79
2023-05-20T12:02:22.138Z,72.96
2023-05-20T12:03:22.388Z,72.76
2023-05-20T12:04:22.085Z,72.96
2023-05-20T12:05:21.973Z,72.66
2023-05-20T12:06:22.083Z,72.96
2023-05-20T12:07:21.987Z,72.76
2023-05-20T12:08:21.955Z,74.69
2023-05-20T12:09:22.095Z,73.66
2023-05-20T12:10:22.144Z,73.75
2023-05-20T12:11:21.890Z,72.62
2023-05-20T12:12:21.986Z,72.06
2023-05-20T12:13:21.855Z,72.66
2023-05-20T12:14:21.859Z,73.06
2023-05-20T12:15:21.979Z,72.42
2023-05-20T12:16:21.861Z,72.22
2023-05-20T12:17:21.893Z,71.72
2023-05-20T12:18:21.923Z,72.42
2023-05-20T12:19:21.854Z,72.13
2023-05-20T12:20:21.830Z,72.02
2023-05-20T12:21:21.763Z,71.92
2023-05-20T12:22:21.953Z,72.13
2023-05-20T12:23:21.779Z,71.42
2023-05-20T12:24:21.824Z,72.82
2023-05-20T12:25:21.770Z,72.39
2023-05-20T12:26:21.684Z,71.95
2023-05-20T12:27:21.772Z,71.66
2023-05-20T12:28:21.683Z,71.06
2023-05-20T12:29:21.670Z,71.69
2023-05-20T12:30:21.840Z,71.72
2023-05-20T12:31:21.699Z,72.22
2023-05-20T12:32:21.959Z,72.42
2023-05-20T12:33:21.647Z,72.32
2023-05-20T12:34:21.599Z,73.02
2023-05-20T12:35:21.666Z,72.89
2023-05-20T12:36:21.558Z,72.69
2023-05-20T12:37:21.651Z,73.02
2023-05-20T12:38:21.599Z,72.89
2023-05-20T12:39:21.653Z,72.72
2023-05-20T12:40:21.506Z,73.12
2023-05-20T12:41:21.480Z,73.12
2023-05-20T12:42:21.596Z,73.49
2023-05-20T12:43:21.675Z,73.39
2023-05-20T12:44:21.552Z,73.28
2023-05-20T12:45:21.468Z,73.19
2023-05-20T12:46:21.558Z,73.19
2023-05-20T12:47:21.665Z,73.39
2023-05-20T12:48:21.581Z,73.42
2023-05-20T12:49:21.706Z,73.32
2023-05-20T12:50:21.527Z,73.42
2023-05-20T12:51:21.388Z,73.06
2023-05-20T12:52:22.811Z,74.05